Milk And Honey — WDF9265 — position and weather

sailwx.info

Track history (hours):
 
Tides and Currents Weather Stations Pressure Air Temp Water Temp Dewpoint Dewpoint Depression Visibility Wind Speed Wind Dir Waves Ship Positions

Milk And Honey

Owner: EKS Chartering Inc, Parsippany, NJ. More information available from US FCC via Universal Licensing System and Coast Guard Vessel Documentation Center.

Last reported at 2016-Sep-25 04:33 UTC. Time now 2016-Sep-25 07:09 UTC.
Position N 26°06' W 080°10'.

Length 40 m.

Type: Pleasure craft. MMSI: 367503380.

Date/timePositionNaut miles runAvg speedWind from/ knotsBaromVisibWave heightAir tempDewpointWater temp
2016-Sep-25 04:33N 26°06' W 080°10'0 0.0
2016-Sep-25 00:33N 26°06' W 080°10'0 0.0
2016-Sep-24 22:33N 26°06' W 080°10'0 0.0
2016-Sep-24 21:33N 26°06' W 080°10'0 0.0
2016-Sep-24 19:33N 26°06' W 080°10'0 0.0
2016-Sep-24 18:33N 26°06' W 080°10'0 0.0
2016-Sep-24 17:33N 26°06' W 080°10'0 0.0
2016-Sep-24 16:33N 26°06' W 080°10'0 0.0
2016-Sep-24 14:33N 26°06' W 080°10'0 0.0
2016-Sep-24 12:33N 26°06' W 080°10'0 0.0
2016-Sep-24 10:33N 26°06' W 080°10'0 0.0
2016-Sep-24 09:33N 26°06' W 080°10'0 0.0
2016-Sep-24 03:33N 26°06' W 080°10'0 0.0
2016-Sep-24 02:33N 26°06' W 080°10'0 0.0
2016-Sep-24 01:33N 26°06' W 080°10'0 0.0
2016-Sep-24 00:33N 26°06' W 080°10'0 0.0
2016-Sep-23 19:33N 26°06' W 080°10'0 0.0
2016-Sep-23 17:34N 26°06' W 080°10'0 0.0
2016-Sep-23 16:34N 26°06' W 080°10'0 0.0
2016-Sep-23 15:34N 26°06' W 080°10'0 0.0
2016-Sep-23 13:33N 26°06' W 080°10'0 0.0
2016-Sep-23 09:33N 26°06' W 080°10'0 0.0
2016-Sep-23 06:34N 26°06' W 080°10'0 0.0
2016-Sep-23 04:34N 26°06' W 080°10'0 0.0
2016-Sep-23 03:34N 26°06' W 080°10'0 0.0
2016-Sep-23 02:33N 26°06' W 080°10'0 0.0
2016-Sep-23 01:33N 26°06' W 080°10'0 0.0
2016-Sep-23 00:33N 26°06' W 080°10'0 0.0
2016-Sep-22 23:33N 26°06' W 080°10'0 0.0
2016-Sep-22 20:33N 26°06' W 080°10'0 0.0
2016-Sep-22 12:34N 26°06' W 080°10'0 0.0
2016-Sep-22 04:33N 26°06' W 080°10'0 0.0
2016-Sep-22 03:34N 26°06' W 080°10'0 0.0
2016-Sep-22 00:34N 26°06' W 080°10'0 0.0
2016-Sep-21 23:34N 26°06' W 080°10'0 0.0
2016-Sep-21 22:34N 26°06' W 080°10'0 0.0
2016-Sep-21 19:33N 26°06' W 080°10'2 0.6
2016-Sep-21 16:33N 26°07' W 080°08'0 3.0
2016-Sep-21 16:29N 26°07' W 080°08'54 7.8
2016-Sep-21 09:34N 27°01' W 080°01'  
2016-Sep-18 01:33N 39°29' W 073°59'1110.5
2016-Sep-18 00:32N 39°39' W 073°55'2210.6
2016-Sep-17 22:27N 40°01' W 073°53'1410.6
2016-Sep-17 21:06N 40°16' W 073°54'710.6
2016-Sep-17 20:27N 40°23' W 073°55'1210.4
2016-Sep-17 19:15N 40°34' W 074°02'213.4
2016-Sep-17 19:06N 40°36' W 074°03'9 1.7
2016-Sep-17 13:33N 40°45' W 074°01'0 0.0
2016-Sep-17 12:33N 40°45' W 074°01'0 0.0
2016-Sep-17 10:33N 40°45' W 074°01'0 0.0
2016-Sep-17 09:33N 40°45' W 074°01'0 0.0
2016-Sep-17 08:33N 40°45' W 074°01'0 0.0
2016-Sep-17 07:33N 40°45' W 074°01'0 0.0
2016-Sep-17 05:33N 40°45' W 074°01'0 0.0
2016-Sep-17 04:33N 40°45' W 074°01'0 0.0
2016-Sep-17 00:33N 40°45' W 074°01'0 0.0
2016-Sep-16 17:33N 40°45' W 074°01'0 0.0
2016-Sep-16 15:33N 40°45' W 074°01'0 0.0
2016-Sep-16 12:33N 40°45' W 074°01'0 0.0
2016-Sep-16 09:33N 40°45' W 074°01'0 0.0
2016-Sep-16 07:34N 40°45' W 074°01'0 0.0
2016-Sep-16 03:33N 40°45' W 074°01'0 0.0
2016-Sep-16 02:33N 40°45' W 074°01'0 0.0
2016-Sep-16 00:33N 40°45' W 074°01'1 0.5
2016-Sep-15 22:33N 40°44' W 074°01'1 1.0
2016-Sep-15 21:33N 40°45' W 074°01'0 0.0
2016-Sep-15 20:33N 40°45' W 074°01'0 0.0
2016-Sep-15 18:33N 40°45' W 074°01'0 0.0
2016-Sep-15 12:34N 40°45' W 074°01'0 0.0
2016-Sep-15 11:34N 40°45' W 074°01'0 0.0
2016-Sep-15 04:34N 40°45' W 074°01'  
Track history (hours):
 
Tides and Currents Weather Stations Pressure Air Temp Water Temp Dewpoint Dewpoint Depression Visibility Wind Speed Wind Dir Waves Ship Positions

Milk And Honey

Owner: EKS Chartering Inc, Parsippany, NJ. More information available from US FCC via Universal Licensing System and Coast Guard Vessel Documentation Center.

Last reported at 2016-Sep-25 04:33 UTC. Time now 2016-Sep-25 07:09 UTC.
Position N 26°06' W 080°10'.

Length 40 m.

Type: Pleasure craft. MMSI: 367503380.

Date/timePositionNaut miles runAvg speedWind from/ knotsBaromVisibWave heightAir tempDewpointWater temp
2016-Sep-25 04:33N 26°06' W 080°10'0 0.0
2016-Sep-25 00:33N 26°06' W 080°10'0 0.0
2016-Sep-24 22:33N 26°06' W 080°10'0 0.0
2016-Sep-24 21:33N 26°06' W 080°10'0 0.0
2016-Sep-24 19:33N 26°06' W 080°10'0 0.0
2016-Sep-24 18:33N 26°06' W 080°10'0 0.0
2016-Sep-24 17:33N 26°06' W 080°10'0 0.0
2016-Sep-24 16:33N 26°06' W 080°10'0 0.0
2016-Sep-24 14:33N 26°06' W 080°10'0 0.0
2016-Sep-24 12:33N 26°06' W 080°10'0 0.0
2016-Sep-24 10:33N 26°06' W 080°10'0 0.0
2016-Sep-24 09:33N 26°06' W 080°10'0 0.0
2016-Sep-24 03:33N 26°06' W 080°10'0 0.0
2016-Sep-24 02:33N 26°06' W 080°10'0 0.0
2016-Sep-24 01:33N 26°06' W 080°10'0 0.0
2016-Sep-24 00:33N 26°06' W 080°10'0 0.0
2016-Sep-23 19:33N 26°06' W 080°10'0 0.0
2016-Sep-23 17:34N 26°06' W 080°10'0 0.0
2016-Sep-23 16:34N 26°06' W 080°10'0 0.0
2016-Sep-23 15:34N 26°06' W 080°10'0 0.0
2016-Sep-23 13:33N 26°06' W 080°10'0 0.0
2016-Sep-23 09:33N 26°06' W 080°10'0 0.0
2016-Sep-23 06:34N 26°06' W 080°10'0 0.0
2016-Sep-23 04:34N 26°06' W 080°10'0 0.0
2016-Sep-23 03:34N 26°06' W 080°10'0 0.0
2016-Sep-23 02:33N 26°06' W 080°10'0 0.0
2016-Sep-23 01:33N 26°06' W 080°10'0 0.0
2016-Sep-23 00:33N 26°06' W 080°10'0 0.0
2016-Sep-22 23:33N 26°06' W 080°10'0 0.0
2016-Sep-22 20:33N 26°06' W 080°10'0 0.0
2016-Sep-22 12:34N 26°06' W 080°10'0 0.0
2016-Sep-22 04:33N 26°06' W 080°10'0 0.0
2016-Sep-22 03:34N 26°06' W 080°10'0 0.0
2016-Sep-22 00:34N 26°06' W 080°10'0 0.0
2016-Sep-21 23:34N 26°06' W 080°10'0 0.0
2016-Sep-21 22:34N 26°06' W 080°10'0 0.0
2016-Sep-21 19:33N 26°06' W 080°10'2 0.6
2016-Sep-21 16:33N 26°07' W 080°08'0 3.0
2016-Sep-21 16:29N 26°07' W 080°08'54 7.8
2016-Sep-21 09:34N 27°01' W 080°01'  
2016-Sep-18 01:33N 39°29' W 073°59'1110.5
2016-Sep-18 00:32N 39°39' W 073°55'2210.6
2016-Sep-17 22:27N 40°01' W 073°53'1410.6
2016-Sep-17 21:06N 40°16' W 073°54'710.6
2016-Sep-17 20:27N 40°23' W 073°55'1210.4
2016-Sep-17 19:15N 40°34' W 074°02'213.4
2016-Sep-17 19:06N 40°36' W 074°03'9 1.7
2016-Sep-17 13:33N 40°45' W 074°01'0 0.0
2016-Sep-17 12:33N 40°45' W 074°01'0 0.0
2016-Sep-17 10:33N 40°45' W 074°01'0 0.0
2016-Sep-17 09:33N 40°45' W 074°01'0 0.0
2016-Sep-17 08:33N 40°45' W 074°01'0 0.0
2016-Sep-17 07:33N 40°45' W 074°01'0 0.0
2016-Sep-17 05:33N 40°45' W 074°01'0 0.0
2016-Sep-17 04:33N 40°45' W 074°01'0 0.0
2016-Sep-17 00:33N 40°45' W 074°01'0 0.0
2016-Sep-16 17:33N 40°45' W 074°01'0 0.0
2016-Sep-16 15:33N 40°45' W 074°01'0 0.0
2016-Sep-16 12:33N 40°45' W 074°01'0 0.0
2016-Sep-16 09:33N 40°45' W 074°01'0 0.0
2016-Sep-16 07:34N 40°45' W 074°01'0 0.0
2016-Sep-16 03:33N 40°45' W 074°01'0 0.0
2016-Sep-16 02:33N 40°45' W 074°01'0 0.0
2016-Sep-16 00:33N 40°45' W 074°01'1 0.5
2016-Sep-15 22:33N 40°44' W 074°01'1 1.0
2016-Sep-15 21:33N 40°45' W 074°01'0 0.0
2016-Sep-15 20:33N 40°45' W 074°01'0 0.0
2016-Sep-15 18:33N 40°45' W 074°01'0 0.0
2016-Sep-15 12:34N 40°45' W 074°01'0 0.0
2016-Sep-15 11:34N 40°45' W 074°01'0 0.0
2016-Sep-15 04:34N 40°45' W 074°01'  

Dump ship's entire track history